sensor_id;sensor_type;location;lat;lon;timestamp;P1;durP1;ratioP1;P2;durP2;ratioP2
76035;SDS011;64732;56.314;44.068;2023-04-03T00:00:48;10.40;;;5.28;;
76035;SDS011;64732;56.314;44.068;2023-04-03T00:03:09;9.55;;;5.10;;
76035;SDS011;64732;56.314;44.068;2023-04-03T00:05:30;10.52;;;4.88;;
76035;SDS011;64732;56.314;44.068;2023-04-03T00:07:51;9.32;;;5.10;;
76035;SDS011;64732;56.314;44.068;2023-04-03T00:10:13;9.23;;;5.00;;
76035;SDS011;64732;56.314;44.068;2023-04-03T00:12:34;9.50;;;5.40;;
76035;SDS011;64732;56.314;44.068;2023-04-03T00:14:58;8.98;;;5.03;;
76035;SDS011;64732;56.314;44.068;2023-04-03T00:17:19;12.00;;;5.78;;
76035;SDS011;64732;56.314;44.068;2023-04-03T00:19:39;8.65;;;5.30;;
76035;SDS011;64732;56.314;44.068;2023-04-03T00:22:00;8.63;;;5.10;;
76035;SDS011;64732;56.314;44.068;2023-04-03T00:24:21;9.82;;;5.28;;
76035;SDS011;64732;56.314;44.068;2023-04-03T00:26:42;9.38;;;4.95;;
76035;SDS011;64732;56.314;44.068;2023-04-03T00:29:03;10.23;;;5.60;;
76035;SDS011;64732;56.314;44.068;2023-04-03T00:31:27;9.63;;;4.43;;
76035;SDS011;64732;56.314;44.068;2023-04-03T00:33:50;11.32;;;5.40;;
76035;SDS011;64732;56.314;44.068;2023-04-03T00:36:11;8.23;;;4.88;;
76035;SDS011;64732;56.314;44.068;2023-04-03T00:38:33;8.30;;;4.93;;
76035;SDS011;64732;56.314;44.068;2023-04-03T00:40:53;9.68;;;5.35;;
76035;SDS011;64732;56.314;44.068;2023-04-03T00:43:15;9.25;;;4.50;;
76035;SDS011;64732;56.314;44.068;2023-04-03T00:45:38;9.13;;;5.22;;
76035;SDS011;64732;56.314;44.068;2023-04-03T00:48:02;9.25;;;5.18;;
76035;SDS011;64732;56.314;44.068;2023-04-03T00:50:25;10.32;;;5.18;;
76035;SDS011;64732;56.314;44.068;2023-04-03T00:52:46;12.80;;;5.32;;
76035;SDS011;64732;56.314;44.068;2023-04-03T00:55:08;10.00;;;5.50;;
76035;SDS011;64732;56.314;44.068;2023-04-03T00:57:33;9.50;;;5.50;;
76035;SDS011;64732;56.314;44.068;2023-04-03T00:59:55;9.70;;;5.13;;
76035;SDS011;64732;56.314;44.068;2023-04-03T01:02:20;11.98;;;5.60;;
76035;SDS011;64732;56.314;44.068;2023-04-03T01:04:43;9.93;;;5.45;;
76035;SDS011;64732;56.314;44.068;2023-04-03T01:07:05;9.60;;;5.25;;
76035;SDS011;64732;56.314;44.068;2023-04-03T01:09:27;9.07;;;5.28;;
76035;SDS011;64732;56.314;44.068;2023-04-03T01:11:49;9.32;;;5.60;;
76035;SDS011;64732;56.314;44.068;2023-04-03T01:14:10;12.13;;;5.95;;
76035;SDS011;64732;56.314;44.068;2023-04-03T01:16:31;10.65;;;5.70;;
76035;SDS011;64732;56.314;44.068;2023-04-03T01:18:52;10.02;;;5.82;;
76035;SDS011;64732;56.314;44.068;2023-04-03T01:21:27;9.50;;;5.43;;
76035;SDS011;64732;56.314;44.068;2023-04-03T01:24:19;11.82;;;5.93;;
76035;SDS011;64732;56.314;44.068;2023-04-03T01:26:45;10.52;;;5.93;;
76035;SDS011;64732;56.314;44.068;2023-04-03T01:29:06;11.95;;;6.07;;
76035;SDS011;64732;56.314;44.068;2023-04-03T01:31:28;10.77;;;5.50;;
76035;SDS011;64732;56.314;44.068;2023-04-03T01:33:55;10.10;;;5.50;;
76035;SDS011;64732;56.314;44.068;2023-04-03T01:36:16;16.60;;;6.75;;
76035;SDS011;64732;56.314;44.068;2023-04-03T01:38:39;11.05;;;5.97;;
76035;SDS011;64732;56.314;44.068;2023-04-03T01:41:00;11.05;;;6.03;;
76035;SDS011;64732;56.314;44.068;2023-04-03T01:43:21;10.50;;;6.13;;
76035;SDS011;64732;56.314;44.068;2023-04-03T01:45:42;11.05;;;6.13;;
76035;SDS011;64732;56.314;44.068;2023-04-03T01:48:03;10.85;;;6.03;;
76035;SDS011;64732;56.314;44.068;2023-04-03T01:50:27;10.57;;;5.70;;
76035;SDS011;64732;56.314;44.068;2023-04-03T01:52:48;10.65;;;5.93;;
76035;SDS011;64732;56.314;44.068;2023-04-03T01:55:09;11.43;;;5.38;;
76035;SDS011;64732;56.314;44.068;2023-04-03T01:57:30;10.40;;;5.57;;
76035;SDS011;64732;56.314;44.068;2023-04-03T01:59:51;13.30;;;5.78;;
76035;SDS011;64732;56.314;44.068;2023-04-03T02:02:12;10.63;;;5.32;;
76035;SDS011;64732;56.314;44.068;2023-04-03T02:04:33;12.18;;;6.43;;
76035;SDS011;64732;56.314;44.068;2023-04-03T02:06:56;10.68;;;5.20;;
76035;SDS011;64732;56.314;44.068;2023-04-03T02:09:17;10.70;;;5.95;;
76035;SDS011;64732;56.314;44.068;2023-04-03T02:11:38;13.27;;;5.53;;
76035;SDS011;64732;56.314;44.068;2023-04-03T02:14:00;13.10;;;6.35;;
76035;SDS011;64732;56.314;44.068;2023-04-03T02:16:23;9.77;;;5.75;;
76035;SDS011;64732;56.314;44.068;2023-04-03T02:18:44;8.75;;;5.25;;
76035;SDS011;64732;56.314;44.068;2023-04-03T02:21:05;9.43;;;5.57;;
76035;SDS011;64732;56.314;44.068;2023-04-03T02:23:29;9.98;;;5.50;;
76035;SDS011;64732;56.314;44.068;2023-04-03T02:25:50;13.40;;;6.15;;
76035;SDS011;64732;56.314;44.068;2023-04-03T02:28:10;14.27;;;6.82;;
76035;SDS011;64732;56.314;44.068;2023-04-03T02:30:33;14.80;;;6.90;;
76035;SDS011;64732;56.314;44.068;2023-04-03T02:32:54;11.70;;;6.38;;
76035;SDS011;64732;56.314;44.068;2023-04-03T02:35:15;10.57;;;5.72;;
76035;SDS011;64732;56.314;44.068;2023-04-03T02:37:39;13.07;;;6.38;;
76035;SDS011;64732;56.314;44.068;2023-04-03T02:40:06;9.85;;;6.20;;
76035;SDS011;64732;56.314;44.068;2023-04-03T02:42:28;11.75;;;6.25;;
76035;SDS011;64732;56.314;44.068;2023-04-03T02:44:48;12.73;;;6.38;;
76035;SDS011;64732;56.314;44.068;2023-04-03T02:47:09;12.00;;;6.90;;
76035;SDS011;64732;56.314;44.068;2023-04-03T02:49:30;13.93;;;7.28;;
76035;SDS011;64732;56.314;44.068;2023-04-03T02:51:51;11.23;;;6.72;;
76035;SDS011;64732;56.314;44.068;2023-04-03T02:54:12;11.93;;;6.72;;
76035;SDS011;64732;56.314;44.068;2023-04-03T02:56:36;10.75;;;6.15;;
76035;SDS011;64732;56.314;44.068;2023-04-03T02:58:57;14.18;;;6.50;;
76035;SDS011;64732;56.314;44.068;2023-04-03T03:01:37;14.93;;;7.03;;
76035;SDS011;64732;56.314;44.068;2023-04-03T03:03:58;15.10;;;7.18;;
76035;SDS011;64732;56.314;44.068;2023-04-03T03:06:20;12.10;;;7.05;;
76035;SDS011;64732;56.314;44.068;2023-04-03T03:08:41;13.38;;;7.55;;
76035;SDS011;64732;56.314;44.068;2023-04-03T03:11:02;14.10;;;7.30;;
76035;SDS011;64732;56.314;44.068;2023-04-03T03:13:26;17.23;;;8.15;;
76035;SDS011;64732;56.314;44.068;2023-04-03T03:15:47;15.95;;;7.85;;
76035;SDS011;64732;56.314;44.068;2023-04-03T03:18:08;14.25;;;7.32;;
76035;SDS011;64732;56.314;44.068;2023-04-03T03:20:29;15.00;;;7.05;;
76035;SDS011;64732;56.314;44.068;2023-04-03T03:22:50;12.93;;;7.38;;
76035;SDS011;64732;56.314;44.068;2023-04-03T03:25:11;13.45;;;7.13;;
76035;SDS011;64732;56.314;44.068;2023-04-03T03:27:32;13.68;;;7.18;;
76035;SDS011;64732;56.314;44.068;2023-04-03T03:29:56;13.60;;;7.15;;
76035;SDS011;64732;56.314;44.068;2023-04-03T03:32:17;11.60;;;6.65;;
76035;SDS011;64732;56.314;44.068;2023-04-03T03:34:38;12.55;;;6.72;;
76035;SDS011;64732;56.314;44.068;2023-04-03T03:36:59;12.90;;;6.78;;
76035;SDS011;64732;56.314;44.068;2023-04-03T03:39:20;12.55;;;7.25;;
76035;SDS011;64732;56.314;44.068;2023-04-03T03:41:41;11.43;;;6.25;;
76035;SDS011;64732;56.314;44.068;2023-04-03T03:44:02;17.52;;;6.55;;
76035;SDS011;64732;56.314;44.068;2023-04-03T03:46:26;10.73;;;5.53;;
76035;SDS011;64732;56.314;44.068;2023-04-03T03:48:47;11.38;;;5.88;;
76035;SDS011;64732;56.314;44.068;2023-04-03T03:51:08;11.10;;;6.00;;
76035;SDS011;64732;56.314;44.068;2023-04-03T03:53:29;11.93;;;6.30;;
76035;SDS011;64732;56.314;44.068;2023-04-03T03:55:50;14.20;;;6.80;;
76035;SDS011;64732;56.314;44.068;2023-04-03T03:58:11;18.02;;;6.10;;
76035;SDS011;64732;56.314;44.068;2023-04-03T04:00:32;11.68;;;6.15;;
76035;SDS011;64732;56.314;44.068;2023-04-03T04:02:55;9.82;;;5.13;;
76035;SDS011;64732;56.314;44.068;2023-04-03T04:05:16;12.25;;;7.18;;
76035;SDS011;64732;56.314;44.068;2023-04-03T04:07:37;11.65;;;6.68;;
76035;SDS011;64732;56.314;44.068;2023-04-03T04:09:59;11.95;;;6.75;;
76035;SDS011;64732;56.314;44.068;2023-04-03T04:12:20;12.75;;;6.45;;
76035;SDS011;64732;56.314;44.068;2023-04-03T04:14:41;18.65;;;10.00;;
76035;SDS011;64732;56.314;44.068;2023-04-03T04:17:02;13.00;;;6.00;;
76035;SDS011;64732;56.314;44.068;2023-04-03T04:19:25;12.05;;;6.93;;
76035;SDS011;64732;56.314;44.068;2023-04-03T04:21:46;11.80;;;6.20;;
76035;SDS011;64732;56.314;44.068;2023-04-03T04:24:07;13.25;;;5.68;;
76035;SDS011;64732;56.314;44.068;2023-04-03T04:26:28;12.98;;;6.25;;
76035;SDS011;64732;56.314;44.068;2023-04-03T04:28:49;13.43;;;6.75;;
76035;SDS011;64732;56.314;44.068;2023-04-03T04:31:10;22.23;;;8.25;;
76035;SDS011;64732;56.314;44.068;2023-04-03T04:33:31;13.93;;;6.13;;
76035;SDS011;64732;56.314;44.068;2023-04-03T04:35:55;12.52;;;5.70;;
76035;SDS011;64732;56.314;44.068;2023-04-03T04:38:16;11.15;;;6.53;;
76035;SDS011;64732;56.314;44.068;2023-04-03T04:40:37;11.10;;;6.10;;
76035;SDS011;64732;56.314;44.068;2023-04-03T04:42:58;12.07;;;5.65;;
76035;SDS011;64732;56.314;44.068;2023-04-03T04:45:19;9.55;;;5.53;;
76035;SDS011;64732;56.314;44.068;2023-04-03T04:47:40;10.63;;;6.18;;
76035;SDS011;64732;56.314;44.068;2023-04-03T04:50:01;11.20;;;5.95;;
76035;SDS011;64732;56.314;44.068;2023-04-03T04:52:27;11.77;;;6.15;;
76035;SDS011;64732;56.314;44.068;2023-04-03T04:54:47;20.00;;;8.40;;
76035;SDS011;64732;56.314;44.068;2023-04-03T04:57:08;11.40;;;6.22;;
76035;SDS011;64732;56.314;44.068;2023-04-03T04:59:29;11.85;;;5.60;;
76035;SDS011;64732;56.314;44.068;2023-04-03T05:01:50;9.85;;;5.63;;
76035;SDS011;64732;56.314;44.068;2023-04-03T05:04:11;14.43;;;6.18;;
76035;SDS011;64732;56.314;44.068;2023-04-03T05:06:33;11.48;;;5.85;;
76035;SDS011;64732;56.314;44.068;2023-04-03T05:08:56;10.80;;;5.88;;
76035;SDS011;64732;56.314;44.068;2023-04-03T05:11:17;10.57;;;6.35;;
76035;SDS011;64732;56.314;44.068;2023-04-03T05:13:38;12.13;;;6.68;;
76035;SDS011;64732;56.314;44.068;2023-04-03T05:15:59;12.30;;;6.53;;
76035;SDS011;64732;56.314;44.068;2023-04-03T05:18:20;13.63;;;6.22;;
76035;SDS011;64732;56.314;44.068;2023-04-03T05:20:41;10.15;;;5.88;;
76035;SDS011;64732;56.314;44.068;2023-04-03T05:23:02;14.48;;;6.70;;
76035;SDS011;64732;56.314;44.068;2023-04-03T05:25:27;15.00;;;6.82;;
76035;SDS011;64732;56.314;44.068;2023-04-03T05:27:48;14.02;;;6.45;;
76035;SDS011;64732;56.314;44.068;2023-04-03T05:30:10;11.52;;;6.65;;
76035;SDS011;64732;56.314;44.068;2023-04-03T05:32:32;13.32;;;6.63;;
76035;SDS011;64732;56.314;44.068;2023-04-03T05:34:53;10.23;;;6.20;;
76035;SDS011;64732;56.314;44.068;2023-04-03T05:37:14;9.77;;;5.60;;
76035;SDS011;64732;56.314;44.068;2023-04-03T05:39:35;11.02;;;6.05;;
76035;SDS011;64732;56.314;44.068;2023-04-03T05:41:58;13.07;;;6.47;;
76035;SDS011;64732;56.314;44.068;2023-04-03T05:44:19;12.65;;;6.05;;
76035;SDS011;64732;56.314;44.068;2023-04-03T05:46:40;13.38;;;6.32;;
76035;SDS011;64732;56.314;44.068;2023-04-03T05:49:01;14.20;;;5.70;;
76035;SDS011;64732;56.314;44.068;2023-04-03T05:51:23;10.93;;;6.40;;
76035;SDS011;64732;56.314;44.068;2023-04-03T05:53:45;16.15;;;5.53;;
76035;SDS011;64732;56.314;44.068;2023-04-03T05:56:10;12.60;;;5.88;;
76035;SDS011;64732;56.314;44.068;2023-04-03T05:58:34;13.75;;;5.88;;
76035;SDS011;64732;56.314;44.068;2023-04-03T06:00:55;12.05;;;6.28;;
76035;SDS011;64732;56.314;44.068;2023-04-03T06:03:16;17.48;;;5.95;;
76035;SDS011;64732;56.314;44.068;2023-04-03T06:05:37;13.57;;;6.07;;
76035;SDS011;64732;56.314;44.068;2023-04-03T06:07:58;16.25;;;5.35;;
76035;SDS011;64732;56.314;44.068;2023-04-03T06:10:19;15.95;;;6.22;;
76035;SDS011;64732;56.314;44.068;2023-04-03T06:12:40;17.85;;;6.35;;
76035;SDS011;64732;56.314;44.068;2023-04-03T06:15:05;16.77;;;5.53;;
76035;SDS011;64732;56.314;44.068;2023-04-03T06:17:26;15.95;;;5.95;;
76035;SDS011;64732;56.314;44.068;2023-04-03T06:19:47;20.27;;;6.13;;
76035;SDS011;64732;56.314;44.068;2023-04-03T06:22:08;19.58;;;6.40;;
76035;SDS011;64732;56.314;44.068;2023-04-03T06:24:30;13.07;;;5.95;;
76035;SDS011;64732;56.314;44.068;2023-04-03T06:26:51;15.90;;;6.35;;
76035;SDS011;64732;56.314;44.068;2023-04-03T06:29:13;17.13;;;5.65;;
76035;SDS011;64732;56.314;44.068;2023-04-03T06:31:36;18.55;;;6.20;;
76035;SDS011;64732;56.314;44.068;2023-04-03T06:33:57;19.90;;;5.78;;
76035;SDS011;64732;56.314;44.068;2023-04-03T06:36:19;17.25;;;5.90;;
76035;SDS011;64732;56.314;44.068;2023-04-03T06:38:40;13.02;;;5.55;;
76035;SDS011;64732;56.314;44.068;2023-04-03T06:41:01;14.45;;;6.47;;
76035;SDS011;64732;56.314;44.068;2023-04-03T06:43:22;21.98;;;7.80;;
76035;SDS011;64732;56.314;44.068;2023-04-03T06:45:43;17.85;;;6.43;;
76035;SDS011;64732;56.314;44.068;2023-04-03T06:48:07;14.02;;;5.57;;
76035;SDS011;64732;56.314;44.068;2023-04-03T06:50:28;19.52;;;6.00;;
76035;SDS011;64732;56.314;44.068;2023-04-03T06:52:49;13.18;;;6.15;;
76035;SDS011;64732;56.314;44.068;2023-04-03T06:55:09;14.65;;;6.80;;
76035;SDS011;64732;56.314;44.068;2023-04-03T06:57:30;22.88;;;6.45;;
76035;SDS011;64732;56.314;44.068;2023-04-03T06:59:51;15.05;;;5.65;;
76035;SDS011;64732;56.314;44.068;2023-04-03T07:02:12;19.08;;;5.85;;
76035;SDS011;64732;56.314;44.068;2023-04-03T07:04:36;20.70;;;6.22;;
76035;SDS011;64732;56.314;44.068;2023-04-03T07:06:57;13.63;;;5.80;;
76035;SDS011;64732;56.314;44.068;2023-04-03T07:09:18;23.75;;;6.20;;
76035;SDS011;64732;56.314;44.068;2023-04-03T07:11:39;19.23;;;6.70;;
76035;SDS011;64732;56.314;44.068;2023-04-03T07:14:00;14.10;;;5.30;;
76035;SDS011;64732;56.314;44.068;2023-04-03T07:16:21;17.65;;;5.70;;
76035;SDS011;64732;56.314;44.068;2023-04-03T07:18:42;14.48;;;5.65;;
76035;SDS011;64732;56.314;44.068;2023-04-03T07:21:05;12.73;;;5.43;;
76035;SDS011;64732;56.314;44.068;2023-04-03T07:23:26;14.10;;;5.68;;
76035;SDS011;64732;56.314;44.068;2023-04-03T07:25:48;16.08;;;5.55;;
76035;SDS011;64732;56.314;44.068;2023-04-03T07:28:10;13.63;;;5.47;;
76035;SDS011;64732;56.314;44.068;2023-04-03T07:30:31;13.20;;;5.80;;
76035;SDS011;64732;56.314;44.068;2023-04-03T07:32:52;20.00;;;5.53;;
76035;SDS011;64732;56.314;44.068;2023-04-03T07:35:13;19.00;;;6.03;;
76035;SDS011;64732;56.314;44.068;2023-04-03T07:37:37;18.30;;;5.72;;
76035;SDS011;64732;56.314;44.068;2023-04-03T07:39:58;10.93;;;4.60;;
76035;SDS011;64732;56.314;44.068;2023-04-03T07:42:19;14.02;;;4.63;;
76035;SDS011;64732;56.314;44.068;2023-04-03T07:44:42;13.00;;;5.25;;
76035;SDS011;64732;56.314;44.068;2023-04-03T07:47:03;19.73;;;5.50;;
76035;SDS011;64732;56.314;44.068;2023-04-03T07:49:24;15.80;;;5.00;;
76035;SDS011;64732;56.314;44.068;2023-04-03T07:51:45;14.38;;;5.03;;
76035;SDS011;64732;56.314;44.068;2023-04-03T07:54:09;12.05;;;5.22;;
76035;SDS011;64732;56.314;44.068;2023-04-03T07:56:30;16.73;;;5.65;;
76035;SDS011;64732;56.314;44.068;2023-04-03T07:58:51;12.38;;;4.50;;
76035;SDS011;64732;56.314;44.068;2023-04-03T08:01:12;9.88;;;4.60;;
76035;SDS011;64732;56.314;44.068;2023-04-03T08:03:33;8.35;;;4.40;;
76035;SDS011;64732;56.314;44.068;2023-04-03T08:05:54;10.18;;;4.40;;
76035;SDS011;64732;56.314;44.068;2023-04-03T08:08:16;14.13;;;5.28;;
76035;SDS011;64732;56.314;44.068;2023-04-03T08:10:41;12.70;;;5.25;;
76035;SDS011;64732;56.314;44.068;2023-04-03T08:13:02;9.65;;;4.20;;
76035;SDS011;64732;56.314;44.068;2023-04-03T08:15:23;7.13;;;3.88;;
76035;SDS011;64732;56.314;44.068;2023-04-03T08:17:44;9.43;;;4.75;;
76035;SDS011;64732;56.314;44.068;2023-04-03T08:20:06;10.02;;;4.10;;
76035;SDS011;64732;56.314;44.068;2023-04-03T08:22:28;15.52;;;4.90;;
76035;SDS011;64732;56.314;44.068;2023-04-03T08:24:49;12.70;;;4.75;;
76035;SDS011;64732;56.314;44.068;2023-04-03T08:27:13;15.30;;;5.38;;
76035;SDS011;64732;56.314;44.068;2023-04-03T08:29:33;10.45;;;4.80;;
76035;SDS011;64732;56.314;44.068;2023-04-03T08:31:55;21.27;;;4.45;;
76035;SDS011;64732;56.314;44.068;2023-04-03T08:34:15;9.88;;;4.20;;
76035;SDS011;64732;56.314;44.068;2023-04-03T08:36:37;12.10;;;4.65;;
76035;SDS011;64732;56.314;44.068;2023-04-03T08:38:58;12.63;;;4.93;;
76035;SDS011;64732;56.314;44.068;2023-04-03T08:41:20;10.48;;;3.97;;
76035;SDS011;64732;56.314;44.068;2023-04-03T08:44:00;12.48;;;4.35;;
76035;SDS011;64732;56.314;44.068;2023-04-03T08:46:24;9.13;;;3.75;;
76035;SDS011;64732;56.314;44.068;2023-04-03T08:48:54;12.90;;;4.03;;
76035;SDS011;64732;56.314;44.068;2023-04-03T08:51:16;16.27;;;4.35;;
76035;SDS011;64732;56.314;44.068;2023-04-03T08:53:39;9.77;;;4.38;;
76035;SDS011;64732;56.314;44.068;2023-04-03T08:56:06;13.55;;;4.60;;
76035;SDS011;64732;56.314;44.068;2023-04-03T08:58:29;11.68;;;3.88;;
76035;SDS011;64732;56.314;44.068;2023-04-03T09:00:54;8.38;;;3.40;;
76035;SDS011;64732;56.314;44.068;2023-04-03T09:03:20;12.35;;;3.40;;
76035;SDS011;64732;56.314;44.068;2023-04-03T09:05:43;9.40;;;3.55;;
76035;SDS011;64732;56.314;44.068;2023-04-03T09:08:09;14.68;;;4.22;;
76035;SDS011;64732;56.314;44.068;2023-04-03T09:10:34;9.23;;;4.10;;
76035;SDS011;64732;56.314;44.068;2023-04-03T09:12:59;11.60;;;3.75;;
76035;SDS011;64732;56.314;44.068;2023-04-03T09:15:24;13.40;;;4.00;;
76035;SDS011;64732;56.314;44.068;2023-04-03T09:17:49;6.95;;;3.58;;
76035;SDS011;64732;56.314;44.068;2023-04-03T09:20:18;9.32;;;3.50;;
76035;SDS011;64732;56.314;44.068;2023-04-03T09:22:42;15.05;;;3.22;;
76035;SDS011;64732;56.314;44.068;2023-04-03T09:25:05;10.65;;;3.53;;
76035;SDS011;64732;56.314;44.068;2023-04-03T09:27:31;9.93;;;3.22;;
76035;SDS011;64732;56.314;44.068;2023-04-03T09:29:52;11.90;;;3.60;;
76035;SDS011;64732;56.314;44.068;2023-04-03T09:32:19;10.82;;;2.97;;
76035;SDS011;64732;56.314;44.068;2023-04-03T09:37:08;8.82;;;3.17;;
76035;SDS011;64732;56.314;44.068;2023-04-03T09:39:29;6.35;;;2.67;;
76035;SDS011;64732;56.314;44.068;2023-04-03T09:41:57;9.38;;;3.25;;
76035;SDS011;64732;56.314;44.068;2023-04-03T09:44:20;5.37;;;2.73;;
76035;SDS011;64732;56.314;44.068;2023-04-03T09:46:43;16.38;;;2.70;;
76035;SDS011;64732;56.314;44.068;2023-04-03T09:49:04;7.40;;;3.33;;
76035;SDS011;64732;56.314;44.068;2023-04-03T09:51:29;8.70;;;3.00;;
76035;SDS011;64732;56.314;44.068;2023-04-03T09:53:50;8.07;;;2.85;;
76035;SDS011;64732;56.314;44.068;2023-04-03T09:56:18;8.65;;;3.03;;
76035;SDS011;64732;56.314;44.068;2023-04-03T09:58:42;9.20;;;3.20;;
76035;SDS011;64732;56.314;44.068;2023-04-03T10:01:05;7.32;;;3.00;;
76035;SDS011;64732;56.314;44.068;2023-04-03T10:03:28;9.70;;;3.17;;
76035;SDS011;64732;56.314;44.068;2023-04-03T10:05:50;9.65;;;3.00;;
76035;SDS011;64732;56.314;44.068;2023-04-03T10:08:23;8.70;;;3.17;;
76035;SDS011;64732;56.314;44.068;2023-04-03T10:10:47;9.43;;;3.20;;
76035;SDS011;64732;56.314;44.068;2023-04-03T10:13:10;10.93;;;3.05;;
76035;SDS011;64732;56.314;44.068;2023-04-03T10:15:33;7.97;;;2.88;;
76035;SDS011;64732;56.314;44.068;2023-04-03T10:17:57;8.32;;;2.80;;
76035;SDS011;64732;56.314;44.068;2023-04-03T10:20:27;8.30;;;2.47;;
76035;SDS011;64732;56.314;44.068;2023-04-03T10:22:59;8.43;;;2.47;;
76035;SDS011;64732;56.314;44.068;2023-04-03T10:25:27;8.80;;;2.53;;
76035;SDS011;64732;56.314;44.068;2023-04-03T10:27:53;5.97;;;2.47;;
76035;SDS011;64732;56.314;44.068;2023-04-03T10:30:19;9.18;;;2.67;;
76035;SDS011;64732;56.314;44.068;2023-04-03T10:32:46;8.50;;;2.80;;
76035;SDS011;64732;56.314;44.068;2023-04-03T10:35:18;7.28;;;2.60;;
76035;SDS011;64732;56.314;44.068;2023-04-03T10:37:45;7.97;;;2.53;;
76035;SDS011;64732;56.314;44.068;2023-04-03T10:40:15;8.90;;;3.00;;
76035;SDS011;64732;56.314;44.068;2023-04-03T10:42:46;6.85;;;2.78;;
76035;SDS011;64732;56.314;44.068;2023-04-03T10:45:16;9.55;;;3.13;;
76035;SDS011;64732;56.314;44.068;2023-04-03T10:47:42;6.00;;;2.35;;
76035;SDS011;64732;56.314;44.068;2023-04-03T10:50:21;7.50;;;2.35;;
76035;SDS011;64732;56.314;44.068;2023-04-03T10:52:47;7.35;;;2.50;;
76035;SDS011;64732;56.314;44.068;2023-04-03T10:55:16;10.55;;;2.70;;
76035;SDS011;64732;56.314;44.068;2023-04-03T10:57:47;9.88;;;2.70;;
76035;SDS011;64732;56.314;44.068;2023-04-03T11:00:14;7.00;;;2.55;;
76035;SDS011;64732;56.314;44.068;2023-04-03T11:02:37;6.88;;;2.70;;
76035;SDS011;64732;56.314;44.068;2023-04-03T11:05:01;7.43;;;3.35;;
76035;SDS011;64732;56.314;44.068;2023-04-03T11:07:24;11.63;;;2.53;;
76035;SDS011;64732;56.314;44.068;2023-04-03T11:09:47;12.77;;;2.83;;
76035;SDS011;64732;56.314;44.068;2023-04-03T11:12:12;7.95;;;2.42;;
76035;SDS011;64732;56.314;44.068;2023-04-03T11:14:37;11.10;;;2.45;;
76035;SDS011;64732;56.314;44.068;2023-04-03T11:17:04;11.02;;;3.28;;
76035;SDS011;64732;56.314;44.068;2023-04-03T11:19:34;7.45;;;2.55;;
76035;SDS011;64732;56.314;44.068;2023-04-03T11:21:56;7.20;;;2.75;;
76035;SDS011;64732;56.314;44.068;2023-04-03T11:24:22;5.80;;;2.33;;
76035;SDS011;64732;56.314;44.068;2023-04-03T11:26:44;8.95;;;2.30;;
76035;SDS011;64732;56.314;44.068;2023-04-03T11:29:06;6.05;;;2.50;;
76035;SDS011;64732;56.314;44.068;2023-04-03T11:31:33;4.05;;;2.03;;
76035;SDS011;64732;56.314;44.068;2023-04-03T11:34:05;7.70;;;2.33;;
76035;SDS011;64732;56.314;44.068;2023-04-03T11:36:31;12.05;;;2.42;;
76035;SDS011;64732;56.314;44.068;2023-04-03T11:38:55;8.70;;;2.20;;
76035;SDS011;64732;56.314;44.068;2023-04-03T11:41:18;8.23;;;2.28;;
76035;SDS011;64732;56.314;44.068;2023-04-03T11:43:55;5.40;;;2.00;;
76035;SDS011;64732;56.314;44.068;2023-04-03T11:46:17;5.32;;;2.35;;
76035;SDS011;64732;56.314;44.068;2023-04-03T11:48:45;11.48;;;3.22;;
76035;SDS011;64732;56.314;44.068;2023-04-03T11:53:43;6.05;;;2.20;;
76035;SDS011;64732;56.314;44.068;2023-04-03T12:01:42;12.80;;;2.85;;
76035;SDS011;64732;56.314;44.068;2023-04-03T12:04:09;6.88;;;2.00;;
76035;SDS011;64732;56.314;44.068;2023-04-03T12:09:34;6.13;;;2.15;;
76035;SDS011;64732;56.314;44.068;2023-04-03T12:12:24;7.43;;;2.33;;
76035;SDS011;64732;56.314;44.068;2023-04-03T12:21:14;9.07;;;2.10;;
76035;SDS011;64732;56.314;44.068;2023-04-03T12:23:36;5.70;;;2.25;;
76035;SDS011;64732;56.314;44.068;2023-04-03T12:26:02;7.97;;;2.05;;
76035;SDS011;64732;56.314;44.068;2023-04-03T12:28:25;14.35;;;2.35;;
76035;SDS011;64732;56.314;44.068;2023-04-03T12:30:47;6.93;;;1.73;;
76035;SDS011;64732;56.314;44.068;2023-04-03T12:33:19;5.60;;;2.75;;
76035;SDS011;64732;56.314;44.068;2023-04-03T12:35:46;7.30;;;2.00;;
76035;SDS011;64732;56.314;44.068;2023-04-03T12:38:20;7.50;;;1.85;;
76035;SDS011;64732;56.314;44.068;2023-04-03T12:40:48;8.73;;;2.28;;
76035;SDS011;64732;56.314;44.068;2023-04-03T12:43:18;6.35;;;1.73;;
76035;SDS011;64732;56.314;44.068;2023-04-03T12:45:49;7.65;;;2.22;;
76035;SDS011;64732;56.314;44.068;2023-04-03T12:48:14;5.80;;;2.25;;
76035;SDS011;64732;56.314;44.068;2023-04-03T12:50:36;7.22;;;2.20;;
76035;SDS011;64732;56.314;44.068;2023-04-03T12:52:58;12.25;;;2.25;;
76035;SDS011;64732;56.314;44.068;2023-04-03T12:55:23;11.35;;;2.35;;
76035;SDS011;64732;56.314;44.068;2023-04-03T12:57:44;8.13;;;2.00;;
76035;SDS011;64732;56.314;44.068;2023-04-03T13:00:18;17.65;;;2.72;;
76035;SDS011;64732;56.314;44.068;2023-04-03T13:02:45;11.45;;;2.33;;
76035;SDS011;64732;56.314;44.068;2023-04-03T13:05:07;7.38;;;2.30;;
76035;SDS011;64732;56.314;44.068;2023-04-03T13:07:29;13.40;;;1.88;;
76035;SDS011;64732;56.314;44.068;2023-04-03T13:09:56;8.40;;;1.90;;
76035;SDS011;64732;56.314;44.068;2023-04-03T13:12:23;7.10;;;2.00;;
76035;SDS011;64732;56.314;44.068;2023-04-03T13:14:51;7.38;;;2.05;;
76035;SDS011;64732;56.314;44.068;2023-04-03T13:17:13;7.53;;;1.98;;
76035;SDS011;64732;56.314;44.068;2023-04-03T13:19:35;9.77;;;2.15;;
76035;SDS011;64732;56.314;44.068;2023-04-03T13:21:57;6.45;;;1.83;;
76035;SDS011;64732;56.314;44.068;2023-04-03T13:24:21;6.28;;;2.03;;
76035;SDS011;64732;56.314;44.068;2023-04-03T13:26:42;9.82;;;2.47;;
76035;SDS011;64732;56.314;44.068;2023-04-03T13:29:17;7.10;;;2.60;;
76035;SDS011;64732;56.314;44.068;2023-04-03T13:31:42;8.20;;;1.95;;
76035;SDS011;64732;56.314;44.068;2023-04-03T13:34:03;7.00;;;2.20;;
76035;SDS011;64732;56.314;44.068;2023-04-03T13:36:28;8.82;;;2.70;;
76035;SDS011;64732;56.314;44.068;2023-04-03T13:38:57;10.55;;;2.30;;
76035;SDS011;64732;56.314;44.068;2023-04-03T13:41:23;8.00;;;2.25;;
76035;SDS011;64732;56.314;44.068;2023-04-03T13:43:46;10.18;;;2.50;;
76035;SDS011;64732;56.314;44.068;2023-04-03T13:48:47;9.88;;;2.50;;
76035;SDS011;64732;56.314;44.068;2023-04-03T13:51:17;9.48;;;2.25;;
76035;SDS011;64732;56.314;44.068;2023-04-03T13:53:41;8.93;;;2.45;;
76035;SDS011;64732;56.314;44.068;2023-04-03T13:56:05;12.52;;;2.63;;
76035;SDS011;64732;56.314;44.068;2023-04-03T13:58:28;5.78;;;2.03;;
76035;SDS011;64732;56.314;44.068;2023-04-03T14:00:51;7.35;;;2.13;;
76035;SDS011;64732;56.314;44.068;2023-04-03T14:03:16;8.48;;;3.08;;
76035;SDS011;64732;56.314;44.068;2023-04-03T14:05:39;9.00;;;2.13;;
76035;SDS011;64732;56.314;44.068;2023-04-03T14:08:00;9.40;;;1.83;;
76035;SDS011;64732;56.314;44.068;2023-04-03T14:10:22;11.18;;;2.00;;
76035;SDS011;64732;56.314;44.068;2023-04-03T14:12:43;8.73;;;1.90;;
76035;SDS011;64732;56.314;44.068;2023-04-03T14:15:05;7.85;;;1.80;;
76035;SDS011;64732;56.314;44.068;2023-04-03T14:17:32;11.45;;;2.22;;
76035;SDS011;64732;56.314;44.068;2023-04-03T14:19:56;8.40;;;2.05;;
76035;SDS011;64732;56.314;44.068;2023-04-03T14:22:19;8.65;;;2.03;;
76035;SDS011;64732;56.314;44.068;2023-04-03T14:24:41;11.35;;;2.03;;